Flight Track Log - Related Links

Times and Time Zones

All times are in EDT time to prevent confusion due to time zone crossing. See the AAL963 flight status page for this flight to view local times or setup timezone preferences in your user account.

Time Position Orientation Groundspeed Altitude Reporting Facility
EDT Latitude Longitude Course Direction KTS MPH feet Rate Location/Type
Fri 09:59:46 PM 32.9310 -97.0280 10° North 170 196 1,900  Level FlightAware ADS-B
Fri 10:00:16 PM 32.9550 -97.0220 12° North 192 221 2,400 700 Climbing FlightAware ADS-B
Fri 10:00:46 PM 32.9850 -97.0150 11° North 230 265 2,600 873 Climbing FlightAware ADS-B
Fri 10:01:11 PM 33.0120 -97.0050 17° North 246 283 3,200 1,650 Climbing FlightAware ADS-B
Fri 10:01:26 PM 33.0250 -96.9930 38° Northeast 247 284 3,700 1,867 Climbing FlightAware ADS-B
Fri 10:01:56 PM 33.0490 -96.9630 46° Northeast 257 296 4,600 1,855 Climbing FlightAware ADS-B
Fri 10:02:21 PM 33.0610 -96.9290 67° East 267 307 5,400 1,600 Climbing FlightAware ADS-B
Fri 10:02:26 PM 33.0610 -96.9270 90° East 268 308 5,400 1,200 Level FlightAware ADS-B
Fri 10:02:51 PM 33.0470 -96.8880 113° Southeast 286 329 6,000 1,680 Climbing FlightAware ADS-B
Fri 10:03:16 PM 33.0280 -96.8580 127° Southeast 289 333 6,800 1,855 Climbing FlightAware ADS-B
Fri 10:03:46 PM 33.0010 -96.8210 131° Southeast 295 339 7,700 1,700 Climbing FlightAware ADS-B
Fri 10:04:16 PM 32.9640 -96.8000 155° Southeast 302 348 8,500 1,855 Climbing FlightAware ADS-B
Fri 10:04:41 PM 32.9270 -96.7940 172° South 300 345 9,400 1,800 Climbing FlightAware ADS-B
Fri 10:05:26 PM 32.8670 -96.7860 174° South 312 359 10,600 1,341 Climbing FlightAware ADS-B
Fri 10:06:06 PM 32.8070 -96.7830 178° South 341 392 11,300 1,575 Climbing FlightAware ADS-B
Fri 10:06:46 PM 32.7420 -96.7810 179° South 346 398 12,700 2,400 Climbing FlightAware ADS-B
Fri 10:07:31 PM 32.6680 -96.7790 179° South 344 396 14,700 2,259 Climbing FlightAware ADS-B
Fri 10:08:11 PM 32.6030 -96.7770 179° South 355 409 15,900 1,875 Climbing FlightAware ADS-B
Fri 10:08:51 PM 32.5390 -96.7510 161° South 370 426 17,200 1,906 Climbing FlightAware ADS-B
Fri 10:09:36 PM 32.4720 -96.7120 154° Southeast 374 430 18,600 1,900 Climbing FlightAware ADS-B
Fri 10:09:51 PM 32.4447 -96.6974 156° South 376 433 19,100 1,067 Climbing FlightAware ADS-B
Fri 10:10:21 PM 32.3954 -96.6706 155° Southeast 399 459 19,400 1,200 Climbing FlightAware ADS-B
Fri 10:10:51 PM 32.3435 -96.6425 155° Southeast 406 467 20,300 1,725 Climbing FlightAware ADS-B
Fri 10:11:41 PM 32.2610 -96.5970 155° Southeast 413 475 21,700 1,615 Climbing FlightAware ADS-B
Fri 10:12:09 PM 32.2099 -96.5688 155° Southeast 411 473 22,400 1,714 Climbing FlightAware ADS-B
Fri 10:12:44 PM 32.1475 -96.5338 155° Southeast 416 479 23,500 2,226 Climbing FlightAware ADS-B
Fri 10:13:11 PM 32.0995 -96.5165 163° South 404 465 24,700 1,781 Climbing FlightAware ADS-B
Fri 10:13:48 PM 32.0306 -96.5035 171° South 407 468 25,400 1,125 Climbing FlightAware ADS-B
Fri 10:14:31 PM 31.9530 -96.4930 173° South 416 479 26,200 1,157 Climbing FlightAware ADS-B
Fri 10:15:11 PM 31.8740 -96.4820 173° South 423 487 27,000 1,263 Climbing FlightAware ADS-B
Fri 10:15:28 PM 31.8384 -96.4774 174° South 424 488 27,400 1,250 Climbing FlightAware ADS-B
Fri 10:15:59 PM 31.7783 -96.4688 173° South 428 493 28,000 1,355 Climbing FlightAware ADS-B
Fri 10:16:30 PM 31.7165 -96.4599 173° South 426 490 28,800 1,645 Climbing FlightAware ADS-B
Fri 10:17:01 PM 31.6564 -96.4511 173° South 420 483 29,700 1,475 Climbing FlightAware ADS-B
Fri 10:17:31 PM 31.5976 -96.4428 173° South 419 482 30,300 885 Climbing FlightAware ADS-B
Fri 10:18:02 PM 31.5394 -96.4347 173° South 423 487 30,600 857 Climbing FlightAware ADS-B
Fri 10:18:27 PM 31.4903 -96.4277 173° South 424 488 31,100 857 Climbing FlightAware ADS-B
Fri 10:18:58 PM 31.4289 -96.4190 173° South 429 494 31,400 689 Climbing FlightAware ADS-B
Fri 10:19:28 PM 31.3686 -96.4104 173° South 434 499 31,800 871 Climbing FlightAware ADS-B
Fri 10:20:00 PM 31.3055 -96.4014 173° South 434 499 32,300 774 Climbing FlightAware ADS-B
Fri 10:20:30 PM 31.2455 -96.3930 173° South 436 502 32,600 682 Climbing FlightAware ADS-B
Fri 10:20:44 PM 31.2174 -96.3889 173° South 439 505 32,800 571 Climbing FlightAware ADS-B
Fri 10:20:51 PM 31.2033 -96.3857 169° South 449 517 32,800  Level FlightAware ADS-B
Fri 10:20:55 PM 31.1940 -96.3824 163° South 455 524 32,800  Level FlightAware ADS-B
Fri 10:21:05 PM 31.1761 -96.3734 157° South 468 539 32,800  Level FlightAware ADS-B
Fri 10:21:09 PM 31.1674 -96.3675 150° Southeast 475 547 32,800 500 Level FlightAware ADS-B
Fri 10:21:17 PM 31.1539 -96.3560 144° Southeast 484 557 32,900 750 Climbing FlightAware ADS-B
Fri 10:21:25 PM 31.1408 -96.3415 137° Southeast 493 567 33,000 150 Climbing FlightAware ADS-B
Fri 10:21:57 PM 31.0962 -96.2723 127° Southeast 512 589 33,000  Level FlightAware ADS-B
Fri 10:22:14 PM 31.0723 -96.2331 125° Southeast 517 595 33,000  Level FlightAware ADS-B
Fri 10:22:41 PM 31.0307 -96.1734 129° Southeast 514 592 33,000  Level FlightAware ADS-B
Fri 10:23:12 PM 30.9825 -96.1122 133° Southeast 509 586 33,000  Level FlightAware ADS-B
Fri 10:23:42 PM 30.9334 -96.0533 134° Southeast 505 581 33,000  Level FlightAware ADS-B
Fri 10:24:12 PM 30.8836 -95.9951 135° Southeast 511 588 33,000  Level FlightAware ADS-B
Fri 10:24:43 PM 30.8318 -95.9354 135° Southeast 512 589 33,000  Level FlightAware ADS-B
Fri 10:25:14 PM 30.7788 -95.8745 135° Southeast 511 588 33,000  Level FlightAware ADS-B
Fri 10:25:45 PM 30.7267 -95.8147 135° Southeast 511 588 33,000 581 Level FlightAware ADS-B
Fri 10:26:16 PM 30.6751 -95.7560 136° Southeast 508 585 33,600 1,258 Climbing FlightAware ADS-B
Fri 10:26:47 PM 30.6241 -95.6976 135° Southeast 501 577 34,300 1,180 Climbing FlightAware ADS-B
Fri 10:27:17 PM 30.5737 -95.6402 136° Southeast 500 575 34,800 677 Climbing FlightAware ADS-B
Fri 10:27:49 PM 30.5213 -95.5806 136° Southeast 500 575 35,000 194 Climbing FlightAware ADS-B
Fri 10:28:19 PM 30.4715 -95.5240 136° Southeast 499 574 35,000  Level FlightAware ADS-B
Fri 10:29:05 PM 30.3961 -95.4384 136° Southeast 499 574 35,000  Level FlightAware ADS-B
Fri 10:29:36 PM 30.3452 -95.3810 136° Southeast 499 574 35,000  Level FlightAware ADS-B
Fri 10:30:06 PM 30.2957 -95.3247 136° Southeast 499 574 35,000  Level FlightAware ADS-B
Fri 10:30:36 PM 30.2450 -95.2675 136° Southeast 504 580 35,000  Level FlightAware ADS-B
Fri 10:31:07 PM 30.1936 -95.2095 136° Southeast 508 585 35,000  Level FlightAware ADS-B
Fri 10:31:37 PM 30.1430 -95.1524 136° Southeast 508 585 35,000  Level FlightAware ADS-B
Fri 10:32:08 PM 30.0917 -95.0946 136° Southeast 512 589 35,000  Level FlightAware ADS-B
Fri 10:32:39 PM 30.0386 -95.0350 136° Southeast 518 596 35,000  Level FlightAware ADS-B
Fri 10:33:09 PM 29.9869 -94.9769 136° Southeast 520 598 35,000  Level FlightAware ADS-B
Fri 10:33:40 PM 29.9338 -94.9177 136° Southeast 521 600 35,000  Level FlightAware ADS-B
Fri 10:34:10 PM 29.8811 -94.8588 136° Southeast 523 602 35,000  Level FlightAware ADS-B
Fri 10:34:40 PM 29.8282 -94.7995 136° Southeast 524 603 35,000  Level FlightAware ADS-B
Fri 10:35:11 PM 29.7750 -94.7403 136° Southeast 525 604 35,000  Level FlightAware ADS-B
Fri 10:35:41 PM 29.7226 -94.6820 136° Southeast 523 602 35,000  Level FlightAware ADS-B
Fri 10:36:11 PM 29.6695 -94.6230 136° Southeast 524 603 35,000  Level FlightAware ADS-B
Fri 10:36:42 PM 29.6167 -94.5644 136° Southeast 523 602 35,000  Level FlightAware ADS-B
Fri 10:37:12 PM 29.5635 -94.5056 136° Southeast 525 604 35,000  Level FlightAware ADS-B
Fri 10:37:42 PM 29.5109 -94.4474 136° Southeast 525 604 35,000  Level FlightAware ADS-B
Fri 10:38:13 PM 29.4571 -94.3881 136° Southeast 526 605 35,000  Level FlightAware ADS-B
Fri 10:38:44 PM 29.4024 -94.3288 137° Southeast 526 605 35,000  Level FlightAware ADS-B
Fri 10:39:21 PM 29.3345 -94.2590 138° Southeast 524 603 35,000  Level FlightAware ADS-B
Fri 10:39:57 PM 29.2697 -94.1947 139° Southeast 523 602 35,000  Level FlightAware ADS-B
Fri 10:40:27 PM 29.2135 -94.1402 140° Southeast 522 601 35,000  Level FlightAware ADS-B
Fri 10:41:37 PM 29.0989 -94.0289 140° Southeast 517 595 35,000  Level Houston Center
Fri 10:42:38 PM 28.9875 -93.9214 140° Southeast 521 600 35,000 -49 Level Houston Center
Fri 10:43:39 PM 28.8650 -93.8083 141° Southeast 520 598 34,900  Descending Houston Center
Fri 10:44:40 PM 28.7628 -93.7100 140° Southeast 525 604 35,000 15 Climbing Houston Center
Fri 10:50:12 PM 28.1249 -93.1083 140° Southeast 525 604 35,000  Level FlightAware ADS-B
Fri 10:50:46 PM 28.0619 -93.0493 140° Southeast 525 604 35,000  Level FlightAware ADS-B
Fri 10:51:21 PM 27.9963 -92.9881 141° Southeast 523 602 35,000  Level FlightAware ADS-B
Fri 10:51:53 PM 27.9369 -92.9326 140° Southeast 522 601 35,000  Level FlightAware ADS-B
Fri 10:52:26 PM 27.8747 -92.8747 141° Southeast 521 600 35,000  Level FlightAware ADS-B
Fri 10:53:17 PM 27.7798 -92.7864 141° Southeast 521 600 35,000 -72 Level FlightAware ADS-B
Fri 10:53:49 PM 27.7253 -92.7336 141° Southeast 520 598 34,900 -65 Descending Houston Center
Fri 10:54:50 PM 27.6131 -92.6308 141° Southeast 520 598 34,900  Level Houston Center
Fri 10:55:51 PM 27.5008 -92.5275 141° Southeast 521 600 34,900  Level Houston Center
Fri 10:56:52 PM 27.3892 -92.4247 141° Southeast 520 598 34,900 49 Level Houston Center
Fri 10:57:53 PM 27.2767 -92.3214 141° Southeast 520 598 35,000  Climbing Houston Center
Fri 10:58:54 PM 27.1647 -92.2181 141° Southeast 521 600 34,900 -49 Descending Houston Center
Fri 10:59:55 PM 27.0514 -92.1161 141° Southeast 522 601 34,900 Level Houston Center
Fri 11:01:00 PM 26.9524 -91.9977 133° Southeast  Level FlightAware Approximate
Fri 11:08:00 PM 26.3005 -91.2455 146° Southeast  Level FlightAware Approximate
Fri 11:09:00 PM 26.1903 -91.1614 146° Southeast  Level FlightAware Approximate
Fri 11:10:00 PM 26.0801 -91.0775 146° Southeast  Level FlightAware Approximate
Fri 11:11:00 PM 25.9701 -90.9933 145° Southeast  Level FlightAware Approximate
Fri 11:12:00 PM 25.8607 -90.9081 145° Southeast  Level FlightAware Approximate
Fri 11:13:00 PM 25.7513 -90.8231 145° Southeast  Level FlightAware Approximate
Fri 11:14:00 PM 25.6419 -90.7382 145° Southeast  Level FlightAware Approximate
Fri 11:15:00 PM 25.5324 -90.6535 145° Southeast  Level FlightAware Approximate
Fri 11:16:00 PM 25.4228 -90.5689 145° Southeast  Level FlightAware Approximate
Fri 11:17:00 PM 25.3135 -90.4841 144° Southeast  Level FlightAware Approximate
Fri 11:18:00 PM 25.2054 -90.3974 144° Southeast  Level FlightAware Approximate
Fri 11:19:00 PM 25.0972 -90.3109 144° Southeast  Level FlightAware Approximate
Fri 11:20:00 PM 24.9889 -90.2248 145° Southeast  Level FlightAware Approximate
Fri 11:21:00 PM 24.8794 -90.1405 145° Southeast  Level FlightAware Approximate
Fri 11:22:00 PM 24.7698 -90.0564 145° Southeast  Level FlightAware Approximate
Fri 11:23:00 PM 24.6602 -89.9724 145° Southeast  Level FlightAware Approximate
Fri 11:24:00 PM 24.5504 -89.8884 145° Southeast  Level FlightAware Approximate
Fri 11:25:00 PM 24.4465 -89.7964 138° Southeast  Level FlightAware Approximate
Fri 11:26:00 PM 24.3476 -89.6975 138° Southeast  Level FlightAware Approximate
Fri 11:26:51 PM 23.9500 -89.4370 138° Southeast 527 606 35,000  Level FlightAware ADS-B
Fri 11:27:26 PM 23.8870 -89.3880 145° Southeast 527 606 35,000  Level FlightAware ADS-B
Fri 11:28:16 PM 23.8020 -89.3230 145° Southeast 527 606 35,000  Level FlightAware ADS-B
Fri 11:28:56 PM 23.7000 -89.2480 146° Southeast 527 606 35,000  Level FlightAware ADS-B
Fri 11:29:41 PM 23.6050 -89.1770 146° Southeast 527 606 35,000  Level FlightAware ADS-B
Fri 11:30:21 PM 23.5260 -89.1180 146° Southeast 527 606 35,000  Level FlightAware ADS-B
Fri 11:31:01 PM 23.4430 -89.0560 146° Southeast 528 608 35,000  Level FlightAware ADS-B
Fri 11:31:46 PM 23.3560 -88.9910 146° Southeast 528 608 35,000  Level FlightAware ADS-B
Fri 11:32:26 PM 23.2730 -88.9290 146° Southeast 529 609 35,000  Level FlightAware ADS-B
Fri 11:33:11 PM 23.1810 -88.8610 146° Southeast 530 610 35,000  Level FlightAware ADS-B
Fri 11:33:51 PM 23.1010 -88.8010 145° Southeast 530 610 35,000  Level FlightAware ADS-B
Fri 11:34:31 PM 23.0200 -88.7410 146° Southeast 530 610 35,000  Level FlightAware ADS-B
Fri 11:35:16 PM 22.9300 -88.6750 146° Southeast 530 610 35,000  Level FlightAware ADS-B
Fri 11:35:56 PM 22.8480 -88.6140 146° Southeast 531 611 35,000  Level FlightAware ADS-B
Fri 11:36:36 PM 22.7690 -88.5560 146° Southeast 530 610 35,000  Level FlightAware ADS-B
Fri 11:37:21 PM 22.6760 -88.4830 144° Southeast 533 613 35,000  Level FlightAware ADS-B
Fri 11:38:01 PM 22.6020 -88.4120 138° Southeast 534 615 35,000  Level FlightAware ADS-B
Fri 11:38:46 PM 22.5220 -88.3320 137° Southeast 533 613 35,000  Level FlightAware ADS-B
Fri 11:39:26 PM 22.4500 -88.2600 137° Southeast 533 613 35,000  Level FlightAware ADS-B
Fri 11:40:06 PM 22.3770 -88.1860 137° Southeast 532 612 35,000  Level FlightAware ADS-B
Fri 11:40:51 PM 22.2940 -88.1050 138° Southeast 533 613 35,000  Level FlightAware ADS-B
Fri 11:41:31 PM 22.2200 -88.0310 137° Southeast 533 613 35,000  Level FlightAware ADS-B
Fri 11:42:16 PM 22.1410 -87.9530 138° Southeast 532 612 35,000  Level FlightAware ADS-B
Fri 11:42:56 PM 22.0680 -87.8800 137° Southeast 532 612 35,000  Level FlightAware ADS-B
Fri 11:43:36 PM 21.9950 -87.8090 138° Southeast 532 612 35,000  Level FlightAware ADS-B
Fri 11:44:21 PM 21.9120 -87.7260 137° Southeast 532 612 35,000  Level FlightAware ADS-B
Fri 11:45:01 PM 21.8380 -87.6540 138° Southeast 531 611 35,000  Level FlightAware ADS-B
Fri 11:45:41 PM 21.7660 -87.5830 138° Southeast 531 611 35,000  Level FlightAware ADS-B
Fri 11:46:26 PM 21.6870 -87.5050 137° Southeast 531 611 35,000  Level FlightAware ADS-B
Fri 11:47:06 PM 21.6140 -87.4330 137° Southeast 532 612 35,000  Level FlightAware ADS-B
Fri 11:47:51 PM 21.5300 -87.3500 137° Southeast 532 612 35,000  Level FlightAware ADS-B
Fri 11:48:31 PM 21.4580 -87.2800 138° Southeast 533 613 35,000  Level FlightAware ADS-B
Fri 11:49:16 PM 21.3770 -87.2010 138° Southeast 533 613 35,000  Level FlightAware ADS-B
Fri 11:49:56 PM 21.3040 -87.1290 137° Southeast 534 615 35,000  Level FlightAware ADS-B
Fri 11:50:36 PM 21.2320 -87.0590 138° Southeast 534 615 35,000  Level FlightAware ADS-B
Fri 11:51:21 PM 21.1470 -86.9770 138° Southeast 533 613 35,000  Level FlightAware ADS-B
Fri 11:52:01 PM 21.0750 -86.9070 138° Southeast 534 615 35,000  Level FlightAware ADS-B
Fri 11:52:46 PM 20.9930 -86.8270 138° Southeast 535 616 35,000  Level FlightAware ADS-B
Fri 11:53:26 PM 20.9200 -86.7570 138° Southeast 535 616 35,000  Level FlightAware ADS-B
Fri 11:54:06 PM 20.8470 -86.6860 138° Southeast 535 616 35,000  Level FlightAware ADS-B
Fri 11:54:46 PM 20.7730 -86.6140 138° Southeast 535 616 35,000  Level FlightAware ADS-B
Fri 11:55:31 PM 20.6900 -86.5330 138° Southeast 534 615 35,000  Level FlightAware ADS-B
Fri 11:56:16 PM 20.6120 -86.4580 138° Southeast 533 613 35,000  Level FlightAware ADS-B
Fri 11:56:56 PM 20.5410 -86.3880 137° Southeast 533 613 35,000  Level FlightAware ADS-B
Fri 11:57:36 PM 20.4800 -86.3270 137° Southeast 533 613 35,000  Level FlightAware ADS-B
Fri 11:58:16 PM 20.4180 -86.2660 137° Southeast 533 613 35,000  Level FlightAware ADS-B
Fri 11:58:56 PM 20.3570 -86.2050 137° Southeast 533 613 35,000  Level FlightAware ADS-B
Fri 11:59:36 PM 20.2960 -86.1440 137° Southeast 533 613 35,000  Level FlightAware ADS-B
Sat 12:00:26 AM 20.2190 -86.0680 137° Southeast 533 613 35,000  Level FlightAware ADS-B
Sat 12:01:06 AM 20.1580 -86.0070 137° Southeast 533 613 35,000  Level FlightAware ADS-B
Sat 12:01:46 AM 20.0960 -85.9460 137° Southeast 533 613 35,000  Level FlightAware ADS-B
Sat 12:02:26 AM 20.0350 -85.8850 137° Southeast 533 613 35,000  Level FlightAware ADS-B
Sat 12:03:16 AM 19.9590 -85.8090 137° Southeast 533 613 35,000  Level FlightAware ADS-B
Sat 12:03:56 AM 19.8970 -85.7490 138° Southeast 533 613 35,000  Level FlightAware ADS-B
Sat 12:04:36 AM 19.8360 -85.6880 137° Southeast 533 613 35,000  Level FlightAware ADS-B
Sat 12:05:16 AM 19.7750 -85.6270 137° Southeast 533 613 35,000  Level FlightAware ADS-B
Sat 12:05:56 AM 19.7130 -85.5660 137° Southeast 533 613 35,000  Level FlightAware ADS-B
Sat 12:08:00 AM 19.5116 -85.3650 137° Southeast  Level Estimated
Sat 12:09:00 AM 19.4141 -85.2679 137° Southeast  Level Estimated
Sat 12:10:00 AM 19.3165 -85.1709 137° Southeast  Level Estimated
Sat 12:11:00 AM 19.2189 -85.0740 137° Southeast  Level Estimated
Sat 12:12:00 AM 19.1212 -84.9772 137° Southeast  Level Estimated
Sat 12:13:00 AM 19.0235 -84.8806 137° Southeast  Level Estimated
Sat 12:14:00 AM 18.9257 -84.7841 137° Southeast  Level Estimated
Sat 12:15:00 AM 18.8279 -84.6876 137° Southeast  Level Estimated
Sat 12:16:00 AM 18.7300 -84.5913 137° Southeast  Level Estimated
Sat 12:17:00 AM 18.6320 -84.4951 137° Southeast  Level Estimated
Sat 12:18:00 AM 18.5341 -84.3991 137° Southeast  Level Estimated
Sat 12:19:00 AM 18.4361 -84.3031 137° Southeast  Level Estimated
Sat 12:20:00 AM 18.3380 -84.2072 137° Southeast  Level Estimated
Sat 12:21:00 AM 18.2399 -84.1115 137° Southeast  Level Estimated
Sat 12:22:00 AM 18.1417 -84.0158 137° Southeast  Level Estimated
Sat 12:23:00 AM 18.0435 -83.9203 137° Southeast  Level Estimated
Sat 12:24:00 AM 17.9452 -83.8249 137° Southeast  Level Estimated
Sat 12:25:00 AM 17.8469 -83.7296 137° Southeast  Level Estimated
Sat 12:26:00 AM 17.7486 -83.6343 137° Southeast  Level Estimated
Sat 12:27:00 AM 17.6502 -83.5392 137° Southeast  Level Estimated
Sat 12:28:00 AM 17.5517 -83.4442 137° Southeast  Level Estimated
Sat 12:29:00 AM 17.4532 -83.3493 137° Southeast  Level Estimated
Sat 12:30:00 AM 17.3547 -83.2545 137° Southeast  Level Estimated
Sat 12:31:00 AM 17.2561 -83.1598 137° Southeast  Level Estimated
Sat 12:32:00 AM 17.1575 -83.0652 137° Southeast  Level Estimated
Sat 12:33:00 AM 17.0588 -82.9707 138° Southeast  Level Estimated
Sat 12:34:00 AM 16.9601 -82.8763 138° Southeast  Level Estimated
Sat 12:35:00 AM 16.8613 -82.7820 138° Southeast  Level Estimated
Sat 12:36:00 AM 16.7625 -82.6878 138° Southeast  Level Estimated
Sat 12:37:00 AM 16.6637 -82.5937 138° Southeast  Level Estimated
Sat 12:38:00 AM 16.5648 -82.4997 138° Southeast  Level Estimated
Sat 12:39:00 AM 16.4659 -82.4058 138° Southeast  Level Estimated
Sat 12:40:00 AM 16.3669 -82.3120 138° Southeast  Level Estimated
Sat 12:41:00 AM 16.2679 -82.2182 138° Southeast  Level Estimated
Sat 12:42:00 AM 16.1688 -82.1246 138° Southeast  Level Estimated
Sat 12:43:00 AM 16.0697 -82.0311 138° Southeast  Level Estimated
Sat 12:44:00 AM 15.9706 -81.9376 138° Southeast  Level Estimated
Sat 12:45:00 AM 15.8715 -81.8443 138° Southeast  Level Estimated
Sat 12:46:00 AM 15.7722 -81.7510 138° Southeast  Level Estimated
Sat 12:47:00 AM 15.6730 -81.6579 138° Southeast  Level Estimated
Sat 12:48:00 AM 15.5737 -81.5648 138° Southeast  Level Estimated
Sat 12:49:00 AM 15.4744 -81.4718 138° Southeast  Level Estimated
Sat 12:50:00 AM 15.3750 -81.3789 138° Southeast  Level Estimated
Sat 12:51:00 AM 15.2756 -81.2861 138° Southeast  Level Estimated
Sat 12:52:00 AM 15.1761 -81.1934 138° Southeast  Level Estimated
Sat 12:53:00 AM 15.0767 -81.1008 138° Southeast  Level Estimated
Sat 12:54:00 AM 14.9771 -81.0082 138° Southeast  Level Estimated
Sat 12:55:00 AM 14.8776 -80.9158 138° Southeast  Level Estimated
Sat 12:56:00 AM 14.7780 -80.8234 138° Southeast  Level Estimated
Sat 12:57:00 AM 14.6784 -80.7311 138° Southeast  Level Estimated
Sat 12:58:00 AM 14.5787 -80.6389 138° Southeast  Level Estimated
Sat 12:59:00 AM 14.4790 -80.5468 138° Southeast  Level Estimated
Sat 01:00:00 AM 14.3792 -80.4548 138° Southeast  Level Estimated
Sat 01:01:00 AM 14.2795 -80.3628 138° Southeast  Level Estimated
Sat 01:02:00 AM 14.1796 -80.2709 138° Southeast  Level Estimated
Sat 01:03:00 AM 14.0798 -80.1791 138° Southeast  Level Estimated
Sat 01:04:00 AM 13.9799 -80.0874 138° Southeast  Level Estimated
Sat 01:05:00 AM 13.8800 -79.9958 138° Southeast  Level Estimated
Sat 01:06:00 AM 13.7800 -79.9042 138° Southeast  Level Estimated
Sat 01:07:00 AM 13.6801 -79.8128 138° Southeast  Level Estimated
Sat 01:08:00 AM 13.5800 -79.7214 138° Southeast  Level Estimated
Sat 01:09:00 AM 13.4800 -79.6300 138° Southeast  Level Estimated
Sat 01:10:00 AM 13.3799 -79.5388 138° Southeast  Level Estimated
Sat 01:11:00 AM 13.2798 -79.4476 138° Southeast  Level Estimated
Sat 01:12:00 AM 13.1796 -79.3565 138° Southeast  Level Estimated
Sat 01:13:00 AM 13.0795 -79.2655 138° Southeast  Level Estimated
Sat 01:14:00 AM 12.9792 -79.1746 139° Southeast  Level Estimated
Sat 01:15:00 AM 12.8790 -79.0837 139° Southeast  Level Estimated
Sat 01:16:00 AM 12.7787 -78.9929 139° Southeast  Level Estimated
Sat 01:17:00 AM 12.6784 -78.9022 139° Southeast  Level Estimated
Sat 01:18:00 AM 12.5781 -78.8115 139° Southeast  Level Estimated
Sat 01:19:00 AM 12.4777 -78.7209 139° Southeast  Level Estimated
Sat 01:20:00 AM 12.3773 -78.6304 139° Southeast  Level Estimated
Sat 01:21:00 AM 12.2769 -78.5399 139° Southeast  Level Estimated
Sat 01:22:00 AM 12.1764 -78.4496 139° Southeast  Level Estimated
Sat 01:23:00 AM 12.0759 -78.3593 139° Southeast  Level Estimated
Sat 01:24:00 AM 11.9754 -78.2690 139° Southeast  Level Estimated
Sat 01:25:00 AM 11.8749 -78.1788 139° Southeast  Level Estimated
Sat 01:26:00 AM 11.7743 -78.0887 139° Southeast  Level Estimated
Sat 01:27:00 AM 11.6737 -77.9987 139° Southeast  Level Estimated
Sat 01:28:00 AM 11.5731 -77.9087 139° Southeast  Level Estimated
Sat 01:28:01 AM 11.2710 -77.3840 139° Southeast 483 556 35,000  Level FlightAware ADS-B
Sat 01:28:41 AM 11.2100 -77.3320 140° Southeast 480 552 35,000  Level FlightAware ADS-B
Sat 01:29:21 AM 11.1340 -77.2670 140° Southeast 479 551 35,000  Level FlightAware ADS-B
Sat 01:30:01 AM 11.0750 -77.2150 139° Southeast 479 551 35,000  Level FlightAware ADS-B
Sat 01:30:46 AM 10.9870 -77.1430 141° Southeast 477 549 35,000  Level FlightAware ADS-B
Sat 01:31:41 AM 10.8930 -77.0650 141° Southeast 476 548 35,000  Level FlightAware ADS-B
Sat 01:32:26 AM 10.8270 -77.0080 140° Southeast 476 548 35,000  Level FlightAware ADS-B
Sat 01:33:06 AM 10.7700 -76.9590 140° Southeast 476 548 35,000  Level FlightAware ADS-B
Sat 01:33:51 AM 10.6730 -76.8800 141° Southeast 35,000  Level FlightAware ADS-B
Sat 01:36:00 AM 10.4543 -76.6933 140° Southeast  Level FlightAware Approximate
Sat 01:37:00 AM 10.3525 -76.6065 140° Southeast  Level FlightAware Approximate
Sat 01:38:00 AM 10.2507 -76.5198 140° Southeast  Level FlightAware Approximate
Sat 01:39:00 AM 10.1489 -76.4331 140° Southeast  Level FlightAware Approximate
Sat 01:39:21 AM 10.1010 -76.4030 140° Southeast 475 547 35,000  Level FlightAware ADS-B
Sat 01:40:21 AM 10.0170 -76.3310 140° Southeast 468 539 35,000  Level FlightAware ADS-B
Sat 01:42:00 AM 9.8492 -76.1879 140° Southeast  Level FlightAware Approximate
Sat 01:42:01 AM 9.8430 -76.1870 140° Southeast 465 535 35,000  Level FlightAware ADS-B
Sat 01:43:06 AM 9.7320 -76.0950 141° Southeast 465 535 35,000  Level FlightAware ADS-B
Sat 01:43:51 AM 9.6540 -76.0310 141° Southeast 466 536 35,000  Level FlightAware ADS-B
Sat 01:44:31 AM 9.5980 -75.9830 140° Southeast 466 536 35,000  Level FlightAware ADS-B
Sat 01:45:11 AM 9.5420 -75.9360 140° Southeast 466 536 35,000  Level FlightAware ADS-B
Sat 01:45:51 AM 9.4860 -75.8880 140° Southeast 466 536 35,000  Level FlightAware ADS-B
Sat 01:46:41 AM 9.4160 -75.8280 140° Southeast 466 536 35,000  Level FlightAware ADS-B
Sat 01:47:21 AM 9.3590 -75.7800 140° Southeast 466 536 35,000  Level FlightAware ADS-B
Sat 01:48:01 AM 9.3030 -75.7330 140° Southeast 466 536 35,000  Level FlightAware ADS-B
Sat 01:48:41 AM 9.2470 -75.6850 140° Southeast 466 536 35,000  Level FlightAware ADS-B
Sat 01:49:21 AM 9.1910 -75.6370 140° Southeast 466 536 35,000  Level FlightAware ADS-B
Sat 01:50:11 AM 9.1210 -75.5780 140° Southeast 466 536 35,000  Level FlightAware ADS-B
Sat 01:50:51 AM 9.0650 -75.5300 140° Southeast 466 536 35,000  Level FlightAware ADS-B
Sat 01:51:31 AM 9.0080 -75.4820 140° Southeast 466 536 35,000  Level FlightAware ADS-B
Sat 01:52:11 AM 8.9520 -75.4350 140° Southeast 466 536 35,000  Level FlightAware ADS-B
Sat 01:52:51 AM 8.8960 -75.3870 140° Southeast 466 536 35,000 15 Level FlightAware ADS-B
Sat 01:55:00 AM 8.6773 -75.2012 140° Southeast  Level FlightAware Approximate
Sat 01:56:00 AM 8.5755 -75.1149 140° Southeast  Level FlightAware Approximate
Sat 01:57:00 AM 8.4737 -75.0286 140° Southeast  Level FlightAware Approximate
Sat 01:58:00 AM 8.3719 -74.9424 140° Southeast  Level FlightAware Approximate
Sat 01:59:00 AM 8.2701 -74.8562 140° Southeast  Level FlightAware Approximate
Sat 02:00:00 AM 8.1682 -74.7701 140° Southeast  Level FlightAware Approximate
Sat 02:01:00 AM 8.0663 -74.6840 140° Southeast  Level FlightAware Approximate
Sat 02:02:00 AM 7.9645 -74.5979 140° Southeast  Level FlightAware Approximate
Sat 02:03:00 AM 7.8626 -74.5119 140° Southeast  Level FlightAware Approximate
Sat 02:04:00 AM 7.7607 -74.4259 140° Southeast  Level FlightAware Approximate
Sat 02:05:00 AM 7.6587 -74.3400 140° Southeast  Level FlightAware Approximate
Sat 02:06:00 AM 7.5568 -74.2541 140° Southeast  Level FlightAware Approximate
Sat 02:07:00 AM 7.4548 -74.1683 140° Southeast  Level FlightAware Approximate
Sat 02:08:00 AM 7.3528 -74.0825 140° Southeast  Level FlightAware Approximate
Sat 02:09:00 AM 7.2508 -73.9967 140° Southeast  Level FlightAware Approximate
Sat 02:10:00 AM 7.1488 -73.9109 140° Southeast  Level FlightAware Approximate
Sat 02:11:00 AM 7.0468 -73.8253 140° Southeast  Level FlightAware Approximate
Sat 02:12:00 AM 6.9342 -73.7552 152° Southeast  Level FlightAware Approximate
Sat 02:13:00 AM 6.8174 -73.6916 152° Southeast  Level FlightAware Approximate
Sat 02:14:00 AM 6.7005 -73.6281 152° Southeast  Level FlightAware Approximate
Sat 02:15:00 AM 6.5836 -73.5646 152° Southeast  Level FlightAware Approximate
Sat 02:16:00 AM 6.4667 -73.5012 152° Southeast  Level FlightAware Approximate
Sat 02:17:00 AM 6.3498 -73.4378 152° Southeast  Level FlightAware Approximate
Sat 02:18:00 AM 6.2328 -73.3744 152° Southeast  Level FlightAware Approximate
Sat 02:19:00 AM 6.1159 -73.3110 152° Southeast  Level FlightAware Approximate
Sat 02:20:00 AM 5.9990 -73.2476 152° Southeast  Level FlightAware Approximate
Sat 02:21:00 AM 5.8820 -73.1843 152° Southeast  Level FlightAware Approximate
Sat 02:22:00 AM 5.7651 -73.1210 152° Southeast  Level FlightAware Approximate
Sat 02:23:00 AM 5.6481 -73.0578 152° Southeast  Level FlightAware Approximate
Sat 02:24:00 AM 5.5311 -72.9946 152° Southeast  Level FlightAware Approximate
Sat 02:25:00 AM 5.4142 -72.9313 152° Southeast  Level FlightAware Approximate
Sat 02:26:00 AM 5.2972 -72.8681 152° Southeast  Level FlightAware Approximate
Sat 02:27:00 AM 5.1802 -72.8050 152° Southeast  Level FlightAware Approximate
Sat 02:28:00 AM 5.0632 -72.7419 152° Southeast  Level FlightAware Approximate
Sat 02:29:00 AM 4.9462 -72.6787 152° Southeast  Level FlightAware Approximate
Sat 02:30:00 AM 4.8292 -72.6156 152° Southeast  Level FlightAware Approximate
Sat 02:31:00 AM 4.7122 -72.5526 152° Southeast  Level FlightAware Approximate
Sat 02:32:00 AM 4.5952 -72.4895 152° Southeast  Level FlightAware Approximate
Sat 02:33:00 AM 4.4782 -72.4265 152° Southeast  Level FlightAware Approximate
Sat 02:34:00 AM 4.3611 -72.3635 152° Southeast  Level FlightAware Approximate
Sat 02:35:00 AM 4.2441 -72.3005 152° Southeast  Level FlightAware Approximate
Sat 02:36:00 AM 4.1271 -72.2375 152° Southeast  Level FlightAware Approximate
Sat 02:37:00 AM 4.0100 -72.1746 152° Southeast  Level FlightAware Approximate
Sat 02:38:00 AM 3.8959 -72.1069 145° Southeast  Level FlightAware Approximate
Sat 02:39:00 AM 3.7873 -72.0303 145° Southeast  Level FlightAware Approximate
Sat 02:40:00 AM 3.6787 -71.9536 145° Southeast  Level FlightAware Approximate
Sat 02:41:00 AM 3.5701 -71.8770 145° Southeast  Level FlightAware Approximate
Sat 02:42:00 AM 3.4615 -71.8005 145° Southeast  Level FlightAware Approximate
Sat 02:43:00 AM 3.3528 -71.7239 145° Southeast  Level FlightAware Approximate
Sat 02:44:00 AM 3.2442 -71.6473 145° Southeast  Level FlightAware Approximate
Sat 02:45:00 AM 3.1356 -71.5708 145° Southeast  Level FlightAware Approximate
Sat 02:46:00 AM 3.0269 -71.4943 145° Southeast  Level FlightAware Approximate
Sat 02:47:00 AM 2.9183 -71.4178 145° Southeast  Level FlightAware Approximate
Sat 02:48:00 AM 2.8096 -71.3413 145° Southeast  Level FlightAware Approximate
Sat 02:49:00 AM 2.7009 -71.2648 145° Southeast  Level FlightAware Approximate
Sat 02:50:00 AM 2.5923 -71.1884 145° Southeast  Level FlightAware Approximate
Sat 02:51:00 AM 2.4836 -71.1119 145° Southeast  Level FlightAware Approximate
Sat 02:52:00 AM 2.3749 -71.0355 145° Southeast  Level FlightAware Approximate
Sat 02:53:00 AM 2.2663 -70.9591 145° Southeast  Level FlightAware Approximate
Sat 02:54:00 AM 2.1576 -70.8827 145° Southeast  Level FlightAware Approximate
Sat 02:55:00 AM 2.0489 -70.8063 145° Southeast  Level FlightAware Approximate
Sat 02:56:00 AM 1.9402 -70.7299 145° Southeast  Level FlightAware Approximate
Sat 02:57:00 AM 1.8315 -70.6535 145° Southeast  Level FlightAware Approximate
Sat 02:58:00 AM 1.7228 -70.5771 145° Southeast  Level FlightAware Approximate
Sat 02:59:00 AM 1.6141 -70.5008 145° Southeast  Level FlightAware Approximate
Sat 03:00:00 AM 1.5054 -70.4244 145° Southeast  Level FlightAware Approximate
Sat 03:01:00 AM 1.3967 -70.3481 145° Southeast  Level FlightAware Approximate
Sat 03:02:00 AM 1.2880 -70.2717 145° Southeast  Level FlightAware Approximate
Sat 03:03:00 AM 1.1840 -70.1894 138° Southeast  Level FlightAware Approximate
Sat 03:04:00 AM 1.0848 -70.1011 138° Southeast  Level FlightAware Approximate
Sat 03:05:00 AM 0.9856 -70.0128 138° Southeast  Level FlightAware Approximate
Sat 03:06:00 AM 0.8863 -69.9245 138° Southeast  Level FlightAware Approximate
Sat 03:07:00 AM 0.7871 -69.8362 138° Southeast  Level FlightAware Approximate
Sat 03:08:00 AM 0.6879 -69.7479 138° Southeast  Level FlightAware Approximate
Sat 03:09:00 AM 0.5887 -69.6596 138° Southeast  Level FlightAware Approximate
Sat 03:10:00 AM 0.4894 -69.5713 138° Southeast  Level FlightAware Approximate
Sat 03:11:00 AM 0.3904 -69.4831 138° Southeast  Level FlightAware Approximate
Sat 03:12:00 AM 0.2913 -69.3950 138° Southeast  Level FlightAware Approximate
Sat 03:13:00 AM 0.1922 -69.3069 138° Southeast  Level FlightAware Approximate
Sat 03:14:00 AM 0.0932 -69.2187 138° Southeast  Level FlightAware Approximate
Sat 03:15:00 AM -0.0059 -69.1306 138° Southeast  Level FlightAware Approximate
Sat 03:16:00 AM -0.1049 -69.0425 138° Southeast  Level FlightAware Approximate
Sat 03:17:00 AM -0.2040 -68.9544 138° Southeast  Level FlightAware Approximate
Sat 03:18:00 AM -0.3031 -68.8662 138° Southeast  Level FlightAware Approximate
Sat 03:19:00 AM -0.4021 -68.7781 138° Southeast  Level FlightAware Approximate
Sat 03:20:00 AM -0.5012 -68.6899 138° Southeast  Level FlightAware Approximate
Sat 03:21:00 AM -0.6002 -68.6018 138° Southeast  Level FlightAware Approximate
Sat 03:22:00 AM -0.6993 -68.5137 138° Southeast  Level FlightAware Approximate
Sat 03:23:00 AM -0.7983 -68.4255 138° Southeast  Level FlightAware Approximate
Sat 03:24:00 AM -0.8974 -68.3374 138° Southeast  Level FlightAware Approximate
Sat 03:25:00 AM -0.9964 -68.2492 138° Southeast  Level FlightAware Approximate
Sat 03:26:00 AM -1.0955 -68.1611 138° Southeast  Level FlightAware Approximate
Sat 03:27:00 AM -1.1945 -68.0729 138° Southeast  Level FlightAware Approximate
Sat 03:28:00 AM -1.2936 -67.9847 138° Southeast  Level FlightAware Approximate
Sat 03:29:00 AM -1.3926 -67.8965 138° Southeast  Level FlightAware Approximate
Sat 03:30:00 AM -1.4916 -67.8083 138° Southeast  Level FlightAware Approximate
Sat 03:31:00 AM -1.5906 -67.7202 138° Southeast  Level FlightAware Approximate
Sat 03:32:00 AM -1.6897 -67.6320 138° Southeast  Level FlightAware Approximate
Sat 03:33:00 AM -1.7887 -67.5437 138° Southeast  Level FlightAware Approximate
Sat 03:34:00 AM -1.8877 -67.4555 138° Southeast  Level FlightAware Approximate
Sat 03:35:00 AM -1.9867 -67.3673 138° Southeast  Level FlightAware Approximate
Sat 03:36:00 AM -2.0857 -67.2791 138° Southeast  Level FlightAware Approximate
Sat 03:37:00 AM -2.1847 -67.1908 138° Southeast  Level FlightAware Approximate
Sat 03:38:00 AM -2.2837 -67.1025 138° Southeast  Level FlightAware Approximate
Sat 03:39:00 AM -2.3827 -67.0143 138° Southeast  Level FlightAware Approximate
Sat 03:40:00 AM -2.4817 -66.9260 138° Southeast  Level FlightAware Approximate
Sat 03:41:00 AM -2.5807 -66.8377 138° Southeast  Level FlightAware Approximate
Sat 03:42:00 AM -2.6797 -66.7494 138° Southeast  Level FlightAware Approximate
Sat 03:43:00 AM -2.7787 -66.6610 138° Southeast  Level FlightAware Approximate
Sat 03:44:00 AM -2.8776 -66.5727 138° Southeast  Level FlightAware Approximate
Sat 03:45:00 AM -2.9766 -66.4843 138° Southeast  Level FlightAware Approximate
Sat 03:46:00 AM -3.0755 -66.3959 138° Southeast  Level FlightAware Approximate
Sat 03:47:00 AM -3.1745 -66.3075 138° Southeast  Level FlightAware Approximate
Sat 03:48:00 AM -3.2734 -66.2191 138° Southeast  Level FlightAware Approximate
Sat 03:49:00 AM -3.3723 -66.1307 138° Southeast  Level FlightAware Approximate
Sat 03:50:00 AM -3.4712 -66.0423 138° Southeast  Level FlightAware Approximate
Sat 03:51:00 AM -3.5701 -65.9538 138° Southeast  Level FlightAware Approximate
Sat 03:52:00 AM -3.6690 -65.8653 138° Southeast  Level FlightAware Approximate
Sat 03:53:00 AM -3.7679 -65.7768 138° Southeast  Level FlightAware Approximate
Sat 03:54:00 AM -3.8668 -65.6883 138° Southeast  Level FlightAware Approximate
Sat 03:55:00 AM -3.9657 -65.5997 138° Southeast  Level FlightAware Approximate
Sat 03:56:00 AM -4.0645 -65.5112 138° Southeast  Level FlightAware Approximate
Sat 03:57:00 AM -4.1634 -65.4226 138° Southeast  Level FlightAware Approximate
Sat 03:58:00 AM -4.2623 -65.3340 138° Southeast  Level FlightAware Approximate
Sat 03:59:00 AM -4.3611 -65.2454 138° Southeast  Level FlightAware Approximate
Sat 04:00:00 AM -4.4599 -65.1567 138° Southeast  Level FlightAware Approximate
Sat 04:01:00 AM -4.5587 -65.0680 138° Southeast  Level FlightAware Approximate
Sat 04:02:00 AM -4.6575 -64.9793 138° Southeast  Level FlightAware Approximate
Sat 04:03:00 AM -4.7563 -64.8906 138° Southeast  Level FlightAware Approximate
Sat 04:04:00 AM -4.8551 -64.8018 138° Southeast  Level FlightAware Approximate
Sat 04:05:00 AM -4.9539 -64.7131 138° Southeast  Level FlightAware Approximate
Sat 04:06:00 AM -5.0526 -64.6242 138° Southeast  Level FlightAware Approximate
Sat 04:07:00 AM -5.1514 -64.5354 138° Southeast  Level FlightAware Approximate
Sat 04:08:00 AM -5.2501 -64.4465 138° Southeast  Level FlightAware Approximate
Sat 04:09:00 AM -5.3488 -64.3577 138° Southeast  Level FlightAware Approximate
Sat 04:10:00 AM -5.4475 -64.2687 138° Southeast  Level FlightAware Approximate
Sat 04:11:00 AM -5.5462 -64.1798 138° Southeast  Level FlightAware Approximate
Sat 04:12:00 AM -5.6449 -64.0908 138° Southeast  Level FlightAware Approximate
Sat 04:13:00 AM -5.7436 -64.0018 138° Southeast  Level FlightAware Approximate
Sat 04:14:00 AM -5.8422 -63.9128 138° Southeast  Level FlightAware Approximate
Sat 04:15:00 AM -5.9409 -63.8237 138° Southeast  Level FlightAware Approximate
Sat 04:16:00 AM -6.0395 -63.7346 138° Southeast  Level FlightAware Approximate
Sat 04:17:00 AM -6.1381 -63.6455 138° Southeast  Level FlightAware Approximate
Sat 04:18:00 AM -6.2367 -63.5563 138° Southeast  Level FlightAware Approximate
Sat 04:19:00 AM -6.3353 -63.4671 138° Southeast  Level FlightAware Approximate
Sat 04:20:00 AM -6.4339 -63.3779 138° Southeast  Level FlightAware Approximate
Sat 04:21:00 AM -6.5324 -63.2886 138° Southeast  Level FlightAware Approximate
Sat 04:22:00 AM -6.6309 -63.1993 138° Southeast  Level FlightAware Approximate
Sat 04:23:00 AM -6.7295 -63.1100 138° Southeast  Level FlightAware Approximate
Sat 04:24:00 AM -6.8280 -63.0206 138° Southeast  Level FlightAware Approximate
Sat 04:25:00 AM -6.9265 -62.9312 138° Southeast  Level FlightAware Approximate
Sat 04:26:00 AM -7.0249 -62.8417 138° Southeast  Level FlightAware Approximate
Sat 04:27:00 AM -7.1234 -62.7522 138° Southeast  Level FlightAware Approximate
Sat 04:28:00 AM -7.2218 -62.6627 138° Southeast  Level FlightAware Approximate
Sat 04:29:00 AM -7.3202 -62.5731 138° Southeast  Level FlightAware Approximate
Sat 04:30:00 AM -7.4186 -62.4835 138° Southeast  Level FlightAware Approximate
Sat 04:31:00 AM -7.5170 -62.3939 138° Southeast  Level FlightAware Approximate
Sat 04:32:00 AM -7.6154 -62.3042 138° Southeast  Level FlightAware Approximate
Sat 04:33:00 AM -7.7137 -62.2144 138° Southeast  Level FlightAware Approximate
Sat 04:34:00 AM -7.8121 -62.1247 138° Southeast  Level FlightAware Approximate
Sat 04:35:00 AM -7.9104 -62.0349 138° Southeast  Level FlightAware Approximate
Sat 04:36:00 AM -8.0087 -61.9450 138° Southeast  Level FlightAware Approximate
Sat 04:37:00 AM -8.1069 -61.8551 138° Southeast  Level FlightAware Approximate
Sat 04:38:00 AM -8.2052 -61.7652 138° Southeast  Level FlightAware Approximate
Sat 04:39:00 AM -8.3034 -61.6752 138° Southeast  Level FlightAware Approximate
Sat 04:40:00 AM -8.4016 -61.5852 138° Southeast  Level FlightAware Approximate
Sat 04:41:00 AM -8.4998 -61.4951 138° Southeast  Level FlightAware Approximate
Sat 04:42:00 AM -8.5980 -61.4049 138° Southeast  Level FlightAware Approximate
Sat 04:43:00 AM -8.6961 -61.3148 138° Southeast  Level FlightAware Approximate
Sat 04:44:00 AM -8.7943 -61.2246 138° Southeast  Level FlightAware Approximate
Sat 04:45:00 AM -8.8924 -61.1343 138° Southeast  Level FlightAware Approximate
Sat 04:46:00 AM -8.9904 -61.0440 138° Southeast  Level FlightAware Approximate
Sat 04:47:00 AM -9.0885 -60.9536 138° Southeast  Level FlightAware Approximate
Sat 04:48:00 AM -9.1865 -60.8632 138° Southeast  Level FlightAware Approximate
Sat 04:49:00 AM -9.2844 -60.7729 138° Southeast  Level FlightAware Approximate
Sat 04:50:00 AM -9.3822 -60.6826 138° Southeast  Level FlightAware Approximate
Sat 04:51:00 AM -9.4800 -60.5922 138° Southeast  Level FlightAware Approximate
Sat 04:52:00 AM -9.5778 -60.5017 138° Southeast  Level FlightAware Approximate
Sat 04:53:00 AM -9.6755 -60.4112 138° Southeast  Level FlightAware Approximate
Sat 04:54:00 AM -9.7733 -60.3206 138° Southeast  Level FlightAware Approximate
Sat 04:55:00 AM -9.8710 -60.2300 138° Southeast  Level FlightAware Approximate
Sat 04:56:00 AM -9.9686 -60.1394 138° Southeast  Level FlightAware Approximate
Sat 04:57:00 AM -10.0663 -60.0486 138° Southeast  Level FlightAware Approximate
Sat 04:58:00 AM -10.1639 -59.9579 138° Southeast  Level FlightAware Approximate
Sat 04:59:00 AM -10.2617 -59.8669 138° Southeast  Level FlightAware Approximate
Sat 05:00:00 AM -10.3595 -59.7758 138° Southeast  Level FlightAware Approximate
Sat 05:01:00 AM -10.4572 -59.6847 137° Southeast  Level FlightAware Approximate
Sat 05:02:00 AM -10.5549 -59.5936 137° Southeast  Level FlightAware Approximate
Sat 05:03:00 AM -10.6526 -59.5023 137° Southeast  Level FlightAware Approximate
Sat 05:04:00 AM -10.7502 -59.4111 137° Southeast  Level FlightAware Approximate
Sat 05:05:00 AM -10.8478 -59.3197 137° Southeast  Level FlightAware Approximate
Sat 05:06:00 AM -10.9454 -59.2283 137° Southeast  Level FlightAware Approximate
Sat 05:07:00 AM -11.0430 -59.1369 137° Southeast  Level FlightAware Approximate
Sat 05:08:00 AM -11.1405 -59.0453 137° Southeast  Level FlightAware Approximate
Sat 05:09:00 AM -11.2380 -58.9538 137° Southeast  Level FlightAware Approximate
Sat 05:10:00 AM -11.3355 -58.8621 137° Southeast  Level FlightAware Approximate
Sat 05:11:00 AM -11.4330 -58.7704 137° Southeast  Level FlightAware Approximate
Sat 05:12:00 AM -11.5304 -58.6787 137° Southeast  Level FlightAware Approximate
Sat 05:13:00 AM -11.6278 -58.5868 137° Southeast  Level FlightAware Approximate
Sat 05:14:00 AM -11.7252 -58.4949 137° Southeast  Level FlightAware Approximate
Sat 05:15:00 AM -11.8225 -58.4030 137° Southeast  Level FlightAware Approximate
Sat 05:16:00 AM -11.9198 -58.3110 137° Southeast  Level FlightAware Approximate
Sat 05:17:00 AM -12.0171 -58.2189 137° Southeast  Level FlightAware Approximate
Sat 05:18:00 AM -12.1144 -58.1267 137° Southeast  Level FlightAware Approximate
Sat 05:19:00 AM -12.2116 -58.0345 137° Southeast  Level FlightAware Approximate
Sat 05:20:00 AM -12.3088 -57.9422 137° Southeast  Level FlightAware Approximate
Sat 05:21:00 AM -12.4059 -57.8498 137° Southeast  Level FlightAware Approximate
Sat 05:22:00 AM -12.5031 -57.7574 137° Southeast  Level FlightAware Approximate
Sat 05:23:00 AM -12.6002 -57.6649 137° Southeast  Level FlightAware Approximate
Sat 05:24:00 AM -12.6972 -57.5723 137° Southeast  Level FlightAware Approximate
Sat 05:25:00 AM -12.7942 -57.4797 137° Southeast  Level FlightAware Approximate
Sat 05:26:00 AM -12.8912 -57.3870 137° Southeast  Level FlightAware Approximate
Sat 05:27:00 AM -12.9882 -57.2942 137° Southeast  Level FlightAware Approximate
Sat 05:28:00 AM -13.0851 -57.2013 137° Southeast  Level FlightAware Approximate
Sat 05:29:00 AM -13.1820 -57.1084 137° Southeast  Level FlightAware Approximate
Sat 05:30:00 AM -13.2789 -57.0154 137° Southeast  Level FlightAware Approximate
Sat 05:31:00 AM -13.3757 -56.9223 137° Southeast  Level FlightAware Approximate
Sat 05:32:00 AM -13.4726 -56.8292 137° Southeast  Level FlightAware Approximate
Sat 05:33:00 AM -13.5693 -56.7360 137° Southeast  Level FlightAware Approximate
Sat 05:34:00 AM -13.6660 -56.6427 137° Southeast  Level FlightAware Approximate
Sat 05:35:00 AM -13.7627 -56.5493 137° Southeast  Level FlightAware Approximate
Sat 05:36:00 AM -13.8594 -56.4558 137° Southeast  Level FlightAware Approximate
Sat 05:37:00 AM -13.9560 -56.3623 137° Southeast  Level FlightAware Approximate
Sat 05:38:00 AM -14.0526 -56.2687 137° Southeast  Level FlightAware Approximate
Sat 05:39:00 AM -14.1492 -56.1750 137° Southeast  Level FlightAware Approximate
Sat 05:40:00 AM -14.2457 -56.0812 137° Southeast  Level FlightAware Approximate
Sat 05:41:00 AM -14.3422 -55.9874 137° Southeast  Level FlightAware Approximate
Sat 05:42:00 AM -14.4386 -55.8934 137° Southeast  Level FlightAware Approximate
Sat 05:43:00 AM -14.5350 -55.7994 137° Southeast  Level FlightAware Approximate
Sat 05:44:00 AM -14.6314 -55.7053 137° Southeast  Level FlightAware Approximate
Sat 05:45:00 AM -14.7277 -55.6111 137° Southeast  Level FlightAware Approximate
Sat 05:46:00 AM -14.8240 -55.5169 137° Southeast  Level FlightAware Approximate
Sat 05:47:00 AM -14.9202 -55.4225 137° Southeast  Level FlightAware Approximate
Sat 05:48:00 AM -15.0165 -55.3281 137° Southeast  Level FlightAware Approximate
Sat 05:49:00 AM -15.1126 -55.2336 137° Southeast  Level FlightAware Approximate
Sat 05:50:00 AM -15.2088 -55.1390 136° Southeast  Level FlightAware Approximate
Sat 05:51:00 AM -15.3049 -55.0443 136° Southeast  Level FlightAware Approximate
Sat 05:52:00 AM -15.4010 -54.9495 136° Southeast  Level FlightAware Approximate
Sat 05:53:00 AM -15.4970 -54.8547 136° Southeast  Level FlightAware Approximate
Sat 05:54:00 AM -15.5929 -54.7597 136° Southeast  Level FlightAware Approximate
Sat 05:55:00 AM -15.6889 -54.6647 136° Southeast  Level FlightAware Approximate
Sat 05:56:00 AM -15.7848 -54.5695 136° Southeast  Level FlightAware Approximate
Sat 05:57:00 AM -15.8806 -54.4743 136° Southeast  Level FlightAware Approximate
Sat 05:58:00 AM -15.9764 -54.3790 136° Southeast  Level FlightAware Approximate
Sat 05:59:00 AM -16.0722 -54.2836 136° Southeast  Level FlightAware Approximate
Sat 06:00:00 AM -16.1679 -54.1881 136° Southeast  Level FlightAware Approximate
Sat 06:01:00 AM -16.2636 -54.0925 136° Southeast  Level FlightAware Approximate
Sat 06:02:00 AM -16.3593 -53.9968 136° Southeast  Level FlightAware Approximate
Sat 06:03:00 AM -16.4549 -53.9011 136° Southeast  Level FlightAware Approximate
Sat 06:04:00 AM -16.5504 -53.8052 136° Southeast  Level FlightAware Approximate
Sat 06:05:00 AM -16.6459 -53.7093 136° Southeast  Level FlightAware Approximate
Sat 06:06:00 AM -16.7414 -53.6132 136° Southeast  Level FlightAware Approximate
Sat 06:07:00 AM -16.8368 -53.5170 136° Southeast  Level FlightAware Approximate
Sat 06:08:00 AM -16.9322 -53.4208 136° Southeast  Level FlightAware Approximate
Sat 06:09:00 AM -17.0275 -53.3244 136° Southeast  Level FlightAware Approximate
Sat 06:10:00 AM -17.1228 -53.2280 136° Southeast  Level FlightAware Approximate
Sat 06:11:00 AM -17.2181 -53.1314 136° Southeast  Level FlightAware Approximate
Sat 06:12:00 AM -17.3133 -53.0348 136° Southeast  Level FlightAware Approximate
Sat 06:13:00 AM -17.4084 -52.9381 136° Southeast  Level FlightAware Approximate
Sat 06:14:00 AM -17.5035 -52.8412 136° Southeast  Level FlightAware Approximate
Sat 06:15:00 AM -17.5986 -52.7443 136° Southeast  Level FlightAware Approximate
Sat 06:16:00 AM -17.6936 -52.6472 136° Southeast  Level FlightAware Approximate
Sat 06:17:00 AM -17.7885 -52.5501 136° Southeast  Level FlightAware Approximate
Sat 06:18:00 AM -17.8834 -52.4528 136° Southeast  Level FlightAware Approximate
Sat 06:19:00 AM -17.9783 -52.3554 136° Southeast  Level FlightAware Approximate
Sat 06:20:00 AM -18.0731 -52.2580 136° Southeast  Level FlightAware Approximate
Sat 06:21:00 AM -18.1679 -52.1604 136° Southeast  Level FlightAware Approximate
Sat 06:22:00 AM -18.2626 -52.0627 136° Southeast  Level FlightAware Approximate
Sat 06:23:00 AM -18.3573 -51.9650 136° Southeast  Level FlightAware Approximate
Sat 06:24:00 AM -18.4519 -51.8671 136° Southeast  Level FlightAware Approximate
Sat 06:25:00 AM -18.5465 -51.7691 136° Southeast  Level FlightAware Approximate
Sat 06:25:57 AM -19.1310 -50.5270 135° Southeast 479 551 39,000  Level FlightAware ADS-B
Sat 06:26:00 AM -18.6410 -51.6710 135° Southeast  Level FlightAware Approximate
Sat 06:26:42 AM -19.2010 -50.4510 134° Southeast 477 549 39,000  Level FlightAware ADS-B
Sat 06:27:22 AM -19.2570 -50.3890 134° Southeast 475 547 39,000  Level FlightAware ADS-B
Sat 06:28:07 AM -19.3170 -50.3240 134° Southeast 475 547 39,000  Level FlightAware ADS-B
Sat 06:28:47 AM -19.3940 -50.2390 134° Southeast 475 547 39,000  Level FlightAware ADS-B
Sat 06:29:47 AM -19.4810 -50.1440 134° Southeast 475 547 39,000  Level FlightAware ADS-B
Sat 06:30:27 AM -19.5420 -50.0760 134° Southeast 475 547 39,000  Level FlightAware ADS-B
Sat 06:31:12 AM -19.6170 -49.9940 134° Southeast 476 548 39,000  Level FlightAware ADS-B
Sat 06:33:00 AM -19.7996 -49.8308 140° Southeast  Level Estimated
Sat 06:33:17 AM -19.7980 -49.7960 140° Southeast 476 548 39,000  Level FlightAware ADS-B
Sat 06:33:57 AM -19.8670 -49.7210 134° Southeast 475 547 39,000  Level FlightAware ADS-B
Sat 06:34:42 AM -19.9290 -49.6530 134° Southeast 476 548 39,000  Level FlightAware ADS-B
Sat 06:35:22 AM -19.9960 -49.5790 134° Southeast 475 547 39,000  Level FlightAware ADS-B
Sat 06:35:57 AM -20.0470 -49.5230 134° Southeast 475 547 39,000  Level FlightAware ADS-B
Sat 06:36:42 AM -20.1200 -49.4430 134° Southeast 475 547 39,000  Level FlightAware ADS-B
Sat 06:37:27 AM -20.1850 -49.3710 134° Southeast 473 544 39,000  Level FlightAware ADS-B
Sat 06:38:07 AM -20.2500 -49.3000 134° Southeast 472 543 39,000  Level FlightAware ADS-B
Sat 06:38:52 AM -20.3180 -49.2240 134° Southeast 472 543 39,000  Level FlightAware ADS-B
Sat 06:39:32 AM -20.3760 -49.1610 134° Southeast 471 542 39,000  Level FlightAware ADS-B
Sat 06:40:17 AM -20.4430 -49.0860 134° Southeast 470 541 39,000  Level FlightAware ADS-B
Sat 06:40:57 AM -20.5050 -49.0170 134° Southeast 469 540 39,000  Level FlightAware ADS-B
Sat 06:41:37 AM -20.5660 -48.9500 134° Southeast 469 540 39,000  Level FlightAware ADS-B
Sat 06:42:22 AM -20.6350 -48.8740 134° Southeast 468 539 39,000  Level FlightAware ADS-B
Sat 06:43:02 AM -20.6910 -48.8110 134° Southeast 468 539 39,000  Level FlightAware ADS-B
Sat 06:43:47 AM -20.7580 -48.7360 134° Southeast 468 539 39,000  Level FlightAware ADS-B
Sat 06:44:27 AM -20.8210 -48.6660 134° Southeast 469 540 39,000  Level FlightAware ADS-B
Sat 06:45:07 AM -20.8840 -48.5950 134° Southeast 469 540 39,000  Level FlightAware ADS-B
Sat 06:45:47 AM -20.9450 -48.5260 133° Southeast 469 540 39,000  Level FlightAware ADS-B
Sat 06:46:32 AM -21.0070 -48.4560 134° Southeast 470 541 39,000  Level FlightAware ADS-B
Sat 06:47:12 AM -21.0680 -48.3870 133° Southeast 471 542 39,000  Level FlightAware ADS-B
Sat 06:48:02 AM -21.1430 -48.3030 134° Southeast 469 540 39,000  Level FlightAware ADS-B
Sat 06:48:42 AM -21.2020 -48.2360 133° Southeast 469 540 39,000  Level FlightAware ADS-B
Sat 06:49:22 AM -21.2640 -48.1660 134° Southeast 468 539 39,000  Level FlightAware ADS-B
Sat 06:50:22 AM -21.3530 -48.0650 133° Southeast 468 539 39,000  Level FlightAware ADS-B
Sat 06:50:57 AM -21.4030 -48.0090 134° Southeast 466 536 39,000  Level FlightAware ADS-B
Sat 06:51:42 AM -21.4700 -47.9320 133° Southeast 466 536 39,000  Level FlightAware ADS-B
Sat 06:52:22 AM -21.5290 -47.8650 133° Southeast 464 534 39,000  Level FlightAware ADS-B
Sat 06:53:07 AM -21.5960 -47.7890 133° Southeast 458 527 39,000  Level FlightAware ADS-B
Sat 06:53:47 AM -21.6540 -47.7230 133° Southeast 458 527 39,000  Level FlightAware ADS-B
Sat 06:54:32 AM -21.7220 -47.6460 134° Southeast 457 526 39,000 -635 Level FlightAware ADS-B
Sat 06:55:12 AM -21.7800 -47.5790 133° Southeast 449 517 38,100 -2,175 Descending FlightAware ADS-B
Sat 06:55:52 AM -21.8380 -47.5140 134° Southeast 457 526 36,100 -2,329 Descending FlightAware ADS-B
Sat 06:56:37 AM -21.9040 -47.4370 133° Southeast 450 518 34,800 -1,800 Descending FlightAware ADS-B
Sat 06:57:22 AM -21.9670 -47.3660 134° Southeast 431 496 33,400 -2,250 Descending FlightAware ADS-B
Sat 06:57:57 AM -22.0270 -47.3270 149° Southeast 417 480 31,800 -2,625 Descending FlightAware ADS-B
Sat 06:58:42 AM -22.1080 -47.2940 159° South 400 460 29,900 -2,600 Descending FlightAware ADS-B
Sat 06:59:27 AM -22.1840 -47.2620 159° South 395 455 27,900 -2,471 Descending FlightAware ADS-B
Sat 07:00:07 AM -22.2530 -47.2340 159° South 377 434 26,400 -1,950 Descending FlightAware ADS-B
Sat 07:00:47 AM -22.3140 -47.2090 159° South 348 400 25,300 -1,694 Descending FlightAware ADS-B
Sat 07:01:32 AM -22.3860 -47.1790 159° South 343 395 24,000 -1,624 Descending FlightAware ADS-B
Sat 07:02:12 AM -22.4450 -47.1540 159° South 347 399 23,000 -1,624 Descending FlightAware ADS-B
Sat 07:02:57 AM -22.5130 -47.1250 158° South 344 396 21,700 -1,694 Descending FlightAware ADS-B
Sat 07:03:37 AM -22.5720 -47.1000 159° South 334 384 20,600 -1,624 Descending FlightAware ADS-B
Sat 07:04:22 AM -22.6370 -47.0720 158° South 331 381 19,400 -1,624 Descending FlightAware ADS-B
Sat 07:05:02 AM -22.6960 -47.0480 159° South 328 377 18,300 -1,575 Descending FlightAware ADS-B
Sat 07:05:42 AM -22.7540 -47.0240 159° South 327 376 17,300 -1,553 Descending FlightAware ADS-B
Sat 07:06:27 AM -22.8200 -46.9960 159° South 331 381 16,100 -1,624 Descending FlightAware ADS-B
Sat 07:07:07 AM -22.8760 -46.9720 158° South 330 380 15,000 -1,694 Descending FlightAware ADS-B
Sat 07:07:52 AM -22.9410 -46.9450 159° South 331 381 13,700 -1,765 Descending FlightAware ADS-B
Sat 07:08:32 AM -22.9980 -46.9210 159° South 331 381 12,500 -1,800 Descending FlightAware ADS-B
Sat 07:09:12 AM -23.0550 -46.8970 159° South 331 381 11,300 -1,725 Descending FlightAware ADS-B
Sat 07:09:52 AM -23.1130 -46.8720 158° South 328 377 10,200 -1,114 Descending FlightAware ADS-B
Sat 07:10:22 AM -23.1530 -46.8550 159° South 298 343 10,000 -218 Descending FlightAware ADS-B
Sat 07:10:47 AM -23.1860 -46.8420 160° South 280 322 10,000 -600 Level FlightAware ADS-B
Sat 07:11:22 AM -23.2290 -46.8230 158° South 274 315 9,400 -800 Descending FlightAware ADS-B
Sat 07:11:47 AM -23.2570 -46.8120 160° South 258 297 9,200 -655 Descending FlightAware ADS-B
Sat 07:12:17 AM -23.2890 -46.7980 158° South 225 259 8,800 -960 Descending FlightAware ADS-B
Sat 07:12:37 AM -23.3090 -46.7900 160° South 222 255 8,400 -1,350 Descending FlightAware ADS-B
Sat 07:12:57 AM -23.3280 -46.7810 156° South 211 243 7,900 -1,320 Descending FlightAware ADS-B
Sat 07:13:27 AM -23.3570 -46.7690 159° South 224 258 7,300 -1,080 Descending FlightAware ADS-B
Sat 07:13:47 AM -23.3760 -46.7590 154° Southeast 222 255 7,000 -982 Descending FlightAware ADS-B
Sat 07:14:22 AM -23.4030 -46.7340 140° Southeast 214 246 6,400 -1,100 Descending FlightAware ADS-B
Sat 07:14:47 AM -23.4220 -46.7160 139° Southeast 215 247 5,900 -750 Descending FlightAware ADS-B
Sat 07:15:02 AM -23.4340 -46.7050 140° Southeast 210 242 5,900 -900 Level FlightAware ADS-B
Sat 07:16:27 AM -23.4730 -46.6330 121° Southeast 206 237 4,400 -960 Descending FlightAware ADS-B
Sat 07:16:42 AM -23.4740 -46.6180 94° East 205 236 4,300 -300 Descending FlightAware ADS-B
Sat 07:17:07 AM -23.4670 -46.5930 73° East 201 231 4,200 -873 Descending FlightAware ADS-B
Sat 07:17:37 AM -23.4590 -46.5630 74° East 191 220 3,500 -1,100 Descending FlightAware ADS-B
Sat 07:18:07 AM -23.4530 -46.5380 75° East 157 181 3,100 -764 Descending FlightAware ADS-B
Sat 07:18:32 AM -23.4480 -46.5210 72° East 136 157 2,800 -750 Descending FlightAware ADS-B
Sat 07:18:47 AM -23.4450 -46.5110 72° East 134 154 2,600 -667 Descending FlightAware ADS-B
Sat 07:19:17 AM -23.4400 -46.4920 74° East 132 152 2,300 -600 Descending FlightAware ADS-B

Login

Don't have an account? Register now (free) for customized features, flight alerts, and more!